LHOB289 UBBB-OAKB
Flight info
| Callsign | LHOB289 |
|---|---|
| Flight time | N/A |
| Altitude | 31000 |
| Route | NAMAS N41 DUKAN B449 DOLOS B475 DAVET P173 GUNKO DCT JESOV DCT WEBRO |
| Aircraft | C17/H-SDE1E2FGHIJ5RTUWXY/LB1D1 |
Departure
| Time | N/A |
|---|---|
| Airport | Heydar Aliyev International Airport (UBBB) |
Arrival
| Time | 2026-05-09 11:12 |
|---|---|
| Airport | Kabul International Airport (OAKB) |
| Time | Latitude | Longitude | Altitude | Speed | Heading |
|---|---|---|---|---|---|
| 2026-05-09 10:40 | 36.35465 | 65.91932 | 32924 ft | 499 kts | 129° |
| 2026-05-09 10:40 | 36.33524 | 65.95500 | 32919 ft | 498 kts | 129° |
| 2026-05-09 10:41 | 36.25692 | 66.09844 | 32931 ft | 497 kts | 130° |
| 2026-05-09 10:41 | 36.21806 | 66.16932 | 32926 ft | 498 kts | 129° |
| 2026-05-09 10:42 | 36.17931 | 66.23989 | 32934 ft | 499 kts | 130° |
| 2026-05-09 10:42 | 36.14003 | 66.31114 | 32938 ft | 502 kts | 129° |
| 2026-05-09 10:43 | 36.10074 | 66.38243 | 32944 ft | 500 kts | 130° |
| 2026-05-09 10:43 | 36.06140 | 66.45347 | 32971 ft | 501 kts | 130° |
| 2026-05-09 10:44 | 36.02194 | 66.52474 | 32947 ft | 502 kts | 130° |
| 2026-05-09 10:44 | 35.98250 | 66.59578 | 32973 ft | 500 kts | 129° |
| 2026-05-09 10:46 | 35.88396 | 66.77262 | 32985 ft | 502 kts | 130° |
| 2026-05-09 10:46 | 35.84430 | 66.84343 | 33023 ft | 498 kts | 129° |
| 2026-05-09 10:47 | 35.80481 | 66.91394 | 32985 ft | 500 kts | 129° |
| 2026-05-09 10:47 | 35.76522 | 66.98484 | 33042 ft | 504 kts | 129° |
| 2026-05-09 10:48 | 35.72552 | 67.05587 | 33074 ft | 498 kts | 129° |
| 2026-05-09 10:48 | 35.68591 | 67.12659 | 33071 ft | 504 kts | 129° |
| 2026-05-09 10:49 | 35.64648 | 67.19701 | 33076 ft | 496 kts | 129° |
| 2026-05-09 10:49 | 35.60727 | 67.26655 | 33055 ft | 500 kts | 128° |
| 2026-05-09 10:50 | 35.56783 | 67.33669 | 33084 ft | 498 kts | 128° |
| 2026-05-09 10:50 | 35.52841 | 67.40650 | 33083 ft | 498 kts | 129° |
| 2026-05-09 10:51 | 35.48894 | 67.47632 | 33063 ft | 495 kts | 128° |
| 2026-05-09 10:51 | 35.44958 | 67.54570 | 33040 ft | 496 kts | 128° |
| 2026-05-09 10:52 | 35.41668 | 67.60362 | 33046 ft | 498 kts | 128° |
| 2026-05-09 10:52 | 35.37062 | 67.68465 | 33024 ft | 497 kts | 128° |
| 2026-05-09 10:53 | 35.33093 | 67.75421 | 33016 ft | 501 kts | 128° |
| 2026-05-09 10:53 | 35.29084 | 67.82445 | 33014 ft | 501 kts | 128° |
| 2026-05-09 10:54 | 35.25095 | 67.89399 | 33005 ft | 499 kts | 128° |
| 2026-05-09 10:54 | 35.21120 | 67.96317 | 33013 ft | 501 kts | 128° |
| 2026-05-09 10:55 | 35.17101 | 68.03276 | 33003 ft | 502 kts | 128° |
| 2026-05-09 10:55 | 35.13071 | 68.10281 | 33016 ft | 506 kts | 129° |
| 2026-05-09 10:56 | 35.08995 | 68.17312 | 33030 ft | 506 kts | 128° |
| 2026-05-09 10:56 | 35.04952 | 68.24300 | 33041 ft | 503 kts | 128° |
| 2026-05-09 10:57 | 35.00895 | 68.31286 | 33055 ft | 504 kts | 128° |
| 2026-05-09 10:57 | 34.96829 | 68.38275 | 33052 ft | 507 kts | 128° |
| 2026-05-09 10:58 | 34.92769 | 68.45236 | 33047 ft | 506 kts | 128° |
| 2026-05-09 10:58 | 34.88686 | 68.52225 | 33037 ft | 506 kts | 128° |
| 2026-05-09 10:59 | 34.84609 | 68.59203 | 33027 ft | 505 kts | 128° |
| 2026-05-09 10:59 | 34.80525 | 68.66164 | 32986 ft | 507 kts | 128° |
| 2026-05-09 10:59 | 34.78456 | 68.69686 | 32641 ft | 514 kts | 127° |
| 2026-05-09 11:00 | 34.76373 | 68.73227 | 32242 ft | 517 kts | 127° |
| 2026-05-09 11:00 | 34.74294 | 68.76762 | 31739 ft | 512 kts | 127° |
| 2026-05-09 11:00 | 34.72229 | 68.80278 | 30992 ft | 509 kts | 127° |
| 2026-05-09 11:00 | 34.70179 | 68.83755 | 30209 ft | 503 kts | 127° |
| 2026-05-09 11:01 | 34.68145 | 68.87193 | 29303 ft | 498 kts | 127° |
| 2026-05-09 11:01 | 34.66138 | 68.90589 | 28388 ft | 492 kts | 127° |
| 2026-05-09 11:01 | 34.64157 | 68.93947 | 27556 ft | 486 kts | 127° |
| 2026-05-09 11:01 | 34.62198 | 68.97260 | 26698 ft | 480 kts | 126° |
| 2026-05-09 11:02 | 34.60290 | 69.00478 | 25879 ft | 473 kts | 127° |
| 2026-05-09 11:02 | 34.58379 | 69.03698 | 25098 ft | 466 kts | 127° |
| 2026-05-09 11:02 | 34.56497 | 69.06873 | 24310 ft | 459 kts | 127° |
| 2026-05-09 11:02 | 34.54648 | 69.09987 | 23582 ft | 452 kts | 127° |
| 2026-05-09 11:03 | 34.52817 | 69.13064 | 22682 ft | 446 kts | 127° |
| 2026-05-09 11:03 | 34.51065 | 69.16136 | 21809 ft | 440 kts | 123° |
| 2026-05-09 11:03 | 34.49382 | 69.19200 | 20973 ft | 434 kts | 126° |
| 2026-05-09 11:03 | 34.47630 | 69.22143 | 20167 ft | 428 kts | 126° |
| 2026-05-09 11:04 | 34.46490 | 69.24084 | 19639 ft | 424 kts | 125° |
| 2026-05-09 11:04 | 34.44299 | 69.28025 | 18590 ft | 417 kts | 123° |
| 2026-05-09 11:04 | 34.42687 | 69.30925 | 17790 ft | 413 kts | 124° |
| 2026-05-09 11:04 | 34.41054 | 69.33775 | 17042 ft | 412 kts | 124° |
| 2026-05-09 11:05 | 34.39433 | 69.36601 | 16299 ft | 405 kts | 124° |
| 2026-05-09 11:05 | 34.38166 | 69.39597 | 15578 ft | 396 kts | 104° |
| 2026-05-09 11:05 | 34.37957 | 69.42810 | 15011 ft | 383 kts | 79° |
| 2026-05-09 11:05 | 34.38843 | 69.45756 | 14515 ft | 366 kts | 54° |
| 2026-05-09 11:06 | 34.40589 | 69.47853 | 14045 ft | 348 kts | 28° |
| 2026-05-09 11:06 | 34.42772 | 69.48914 | 13553 ft | 332 kts | 8° |
| 2026-05-09 11:06 | 34.45023 | 69.49000 | 13033 ft | 315 kts | 348° |
| 2026-05-09 11:06 | 34.47043 | 69.48189 | 12482 ft | 299 kts | 330° |
| 2026-05-09 11:07 | 34.48774 | 69.46935 | 11944 ft | 273 kts | 326° |
| 2026-05-09 11:07 | 34.50056 | 69.45513 | 11392 ft | 225 kts | 308° |
| 2026-05-09 11:07 | 34.50704 | 69.44004 | 10804 ft | 190 kts | 291° |
| 2026-05-09 11:07 | 34.51085 | 69.42495 | 10202 ft | 186 kts | 289° |
| 2026-05-09 11:08 | 34.51486 | 69.40997 | 9566 ft | 188 kts | 291° |
| 2026-05-09 11:08 | 34.51887 | 69.39488 | 8879 ft | 188 kts | 289° |
| 2026-05-09 11:08 | 34.52143 | 69.38480 | 8449 ft | 189 kts | 290° |
| 2026-05-09 11:08 | 34.52557 | 69.36962 | 7771 ft | 189 kts | 291° |
| 2026-05-09 11:09 | 34.53067 | 69.35151 | 7652 ft | 155 kts | 290° |
| 2026-05-09 11:09 | 34.53443 | 69.33836 | 7688 ft | 175 kts | 291° |
| 2026-05-09 11:09 | 34.53830 | 69.32370 | 7464 ft | 190 kts | 286° |
| 2026-05-09 11:09 | 34.54177 | 69.30768 | 7188 ft | 201 kts | 284° |
| 2026-05-09 11:10 | 34.54403 | 69.29663 | 7067 ft | 205 kts | 285° |
| 2026-05-09 11:10 | 34.54762 | 69.28026 | 6844 ft | 192 kts | 287° |
| 2026-05-09 11:10 | 34.55122 | 69.26509 | 6643 ft | 188 kts | 289° |
| 2026-05-09 11:10 | 34.55565 | 69.25037 | 6423 ft | 185 kts | 294° |
| 2026-05-09 11:11 | 34.55983 | 69.23566 | 6026 ft | 184 kts | 288° |
| 2026-05-09 11:11 | 34.56349 | 69.22166 | 5844 ft | 159 kts | 290° |
| 2026-05-09 11:11 | 34.56641 | 69.21069 | 5836 ft | 107 kts | 288° |
| 2026-05-09 11:11 | 34.56818 | 69.20374 | 5830 ft | 66 kts | 285° |
| 2026-05-09 11:12 | 34.56900 | 69.20016 | 5838 ft | 37 kts | 288° |
| 2026-05-09 11:12 | 34.56975 | 69.19729 | 5835 ft | 34 kts | 288° |
| 2026-05-09 11:12 | 34.57039 | 69.19485 | 5830 ft | 17 kts | 294° |
| 2026-05-09 11:12 | 34.57126 | 69.19445 | 5829 ft | 15 kts | 20° |
| 2026-05-09 11:13 | 34.57199 | 69.19546 | 5830 ft | 21 kts | 105° |
| 2026-05-09 11:13 | 34.57145 | 69.19756 | 5836 ft | 30 kts | 107° |
| 2026-05-09 11:13 | 34.57080 | 69.20020 | 5833 ft | 33 kts | 106° |
| 2026-05-09 11:13 | 34.57015 | 69.20260 | 5831 ft | 27 kts | 108° |
| 2026-05-09 11:14 | 34.56963 | 69.20469 | 5830 ft | 25 kts | 107° |
| 2026-05-09 11:14 | 34.56917 | 69.20654 | 5831 ft | 22 kts | 107° |
| 2026-05-09 11:14 | 34.56880 | 69.20791 | 5836 ft | 11 kts | 111° |
| 2026-05-09 11:14 | 34.56891 | 69.20832 | 5835 ft | 5 kts | 27° |
| 2026-05-09 11:15 | 34.56945 | 69.20855 | 5836 ft | 10 kts | 21° |
| 2026-05-09 11:15 | 34.56955 | 69.20884 | 5838 ft | 4 kts | 95° |
| 2026-05-09 11:15 | 34.56940 | 69.20946 | 5838 ft | 7 kts | 108° |
| 2026-05-09 11:15 | 34.56933 | 69.20973 | 5828 ft | 0 kts | 107° |